sensor_id;sensor_type;location;lat;lon;timestamp;temperature;humidity
8214;DHT22;4148;47.974;7.824;2023-02-04T00:00:27;6.50;99.90
8214;DHT22;4148;47.974;7.824;2023-02-04T00:02:56;6.50;99.90
8214;DHT22;4148;47.974;7.824;2023-02-04T00:05:24;6.50;99.90
8214;DHT22;4148;47.974;7.824;2023-02-04T00:07:52;6.50;99.90
8214;DHT22;4148;47.974;7.824;2023-02-04T00:10:20;6.50;99.90
8214;DHT22;4148;47.974;7.824;2023-02-04T00:12:48;6.40;99.90
8214;DHT22;4148;47.974;7.824;2023-02-04T00:15:16;6.40;99.90
8214;DHT22;4148;47.974;7.824;2023-02-04T00:17:45;6.40;99.90
8214;DHT22;4148;47.974;7.824;2023-02-04T00:20:13;6.50;99.90
8214;DHT22;4148;47.974;7.824;2023-02-04T00:22:41;6.50;99.90
8214;DHT22;4148;47.974;7.824;2023-02-04T00:25:09;6.50;99.90
8214;DHT22;4148;47.974;7.824;2023-02-04T00:27:37;6.40;99.90
8214;DHT22;4148;47.974;7.824;2023-02-04T00:30:06;6.40;99.90
8214;DHT22;4148;47.974;7.824;2023-02-04T00:32:34;6.40;99.90
8214;DHT22;4148;47.974;7.824;2023-02-04T00:35:04;6.30;99.90
8214;DHT22;4148;47.974;7.824;2023-02-04T00:37:32;6.30;99.90
8214;DHT22;4148;47.974;7.824;2023-02-04T00:40:00;6.40;99.90
8214;DHT22;4148;47.974;7.824;2023-02-04T00:42:28;6.40;99.90
8214;DHT22;4148;47.974;7.824;2023-02-04T00:44:56;6.30;99.90
8214;DHT22;4148;47.974;7.824;2023-02-04T00:47:23;6.40;99.90
8214;DHT22;4148;47.974;7.824;2023-02-04T00:49:51;6.30;99.90
8214;DHT22;4148;47.974;7.824;2023-02-04T00:52:20;6.30;99.90
8214;DHT22;4148;47.974;7.824;2023-02-04T00:54:48;6.30;99.90
8214;DHT22;4148;47.974;7.824;2023-02-04T00:57:16;6.40;99.90
8214;DHT22;4148;47.974;7.824;2023-02-04T00:59:44;6.30;99.90
8214;DHT22;4148;47.974;7.824;2023-02-04T01:02:12;6.30;99.90
8214;DHT22;4148;47.974;7.824;2023-02-04T01:04:42;6.30;99.90
8214;DHT22;4148;47.974;7.824;2023-02-04T01:07:10;6.30;99.90
8214;DHT22;4148;47.974;7.824;2023-02-04T01:09:39;6.40;99.90
8214;DHT22;4148;47.974;7.824;2023-02-04T01:12:07;6.40;99.90
8214;DHT22;4148;47.974;7.824;2023-02-04T01:14:35;6.40;99.90
8214;DHT22;4148;47.974;7.824;2023-02-04T01:17:03;6.40;99.90
8214;DHT22;4148;47.974;7.824;2023-02-04T01:19:31;6.30;99.90
8214;DHT22;4148;47.974;7.824;2023-02-04T01:21:58;6.30;99.90
8214;DHT22;4148;47.974;7.824;2023-02-04T01:24:26;6.30;99.90
8214;DHT22;4148;47.974;7.824;2023-02-04T01:26:55;6.30;99.90
8214;DHT22;4148;47.974;7.824;2023-02-04T01:29:23;6.40;99.90
8214;DHT22;4148;47.974;7.824;2023-02-04T01:31:51;6.40;99.90
8214;DHT22;4148;47.974;7.824;2023-02-04T01:34:19;6.40;99.90
8214;DHT22;4148;47.974;7.824;2023-02-04T01:36:47;6.40;99.90
8214;DHT22;4148;47.974;7.824;2023-02-04T01:39:14;6.40;99.90
8214;DHT22;4148;47.974;7.824;2023-02-04T01:41:42;6.30;99.90
8214;DHT22;4148;47.974;7.824;2023-02-04T01:44:12;6.30;99.90
8214;DHT22;4148;47.974;7.824;2023-02-04T01:46:40;6.40;99.90
8214;DHT22;4148;47.974;7.824;2023-02-04T01:49:08;6.40;99.90
8214;DHT22;4148;47.974;7.824;2023-02-04T01:51:37;6.40;99.90
8214;DHT22;4148;47.974;7.824;2023-02-04T01:54:08;6.40;99.90
8214;DHT22;4148;47.974;7.824;2023-02-04T01:56:36;6.50;99.90
8214;DHT22;4148;47.974;7.824;2023-02-04T01:59:11;6.50;99.90
8214;DHT22;4148;47.974;7.824;2023-02-04T02:01:41;6.40;99.90
8214;DHT22;4148;47.974;7.824;2023-02-04T02:04:10;6.40;99.90
8214;DHT22;4148;47.974;7.824;2023-02-04T02:06:41;6.30;99.90
8214;DHT22;4148;47.974;7.824;2023-02-04T02:09:10;6.40;99.90
8214;DHT22;4148;47.974;7.824;2023-02-04T02:11:38;6.40;99.90
8214;DHT22;4148;47.974;7.824;2023-02-04T02:14:06;6.40;99.90
8214;DHT22;4148;47.974;7.824;2023-02-04T02:16:36;6.40;99.90
8214;DHT22;4148;47.974;7.824;2023-02-04T02:19:06;6.50;99.90
8214;DHT22;4148;47.974;7.824;2023-02-04T02:21:38;6.40;99.90
8214;DHT22;4148;47.974;7.824;2023-02-04T02:24:28;6.40;99.90
8214;DHT22;4148;47.974;7.824;2023-02-04T02:26:59;6.40;99.90
8214;DHT22;4148;47.974;7.824;2023-02-04T02:29:28;6.40;99.90
8214;DHT22;4148;47.974;7.824;2023-02-04T02:31:57;6.40;99.90
8214;DHT22;4148;47.974;7.824;2023-02-04T02:34:26;6.40;99.90
8214;DHT22;4148;47.974;7.824;2023-02-04T02:36:56;6.30;99.90
8214;DHT22;4148;47.974;7.824;2023-02-04T02:39:25;6.40;99.90
8214;DHT22;4148;47.974;7.824;2023-02-04T02:41:54;6.40;99.90
8214;DHT22;4148;47.974;7.824;2023-02-04T02:44:23;6.50;99.90
8214;DHT22;4148;47.974;7.824;2023-02-04T02:46:52;6.40;99.90
8214;DHT22;4148;47.974;7.824;2023-02-04T02:49:21;6.40;99.90
8214;DHT22;4148;47.974;7.824;2023-02-04T02:51:49;6.50;99.90
8214;DHT22;4148;47.974;7.824;2023-02-04T02:54:20;6.50;99.90
8214;DHT22;4148;47.974;7.824;2023-02-04T02:56:50;6.60;99.90
8214;DHT22;4148;47.974;7.824;2023-02-04T02:59:19;6.60;99.90
8214;DHT22;4148;47.974;7.824;2023-02-04T03:01:49;6.50;99.90
8214;DHT22;4148;47.974;7.824;2023-02-04T03:04:19;6.60;99.90
8214;DHT22;4148;47.974;7.824;2023-02-04T03:06:49;6.60;99.90
8214;DHT22;4148;47.974;7.824;2023-02-04T03:09:17;6.60;99.90
8214;DHT22;4148;47.974;7.824;2023-02-04T03:11:45;6.50;99.90
8214;DHT22;4148;47.974;7.824;2023-02-04T03:14:14;6.60;99.90
8214;DHT22;4148;47.974;7.824;2023-02-04T03:16:43;6.60;99.90
8214;DHT22;4148;47.974;7.824;2023-02-04T03:19:11;6.60;99.90
8214;DHT22;4148;47.974;7.824;2023-02-04T03:21:40;6.50;99.90
8214;DHT22;4148;47.974;7.824;2023-02-04T03:24:08;6.60;99.90
8214;DHT22;4148;47.974;7.824;2023-02-04T03:26:36;6.60;99.90
8214;DHT22;4148;47.974;7.824;2023-02-04T03:29:06;6.60;99.90
8214;DHT22;4148;47.974;7.824;2023-02-04T03:31:34;6.60;99.90
8214;DHT22;4148;47.974;7.824;2023-02-04T03:34:04;6.60;99.90
8214;DHT22;4148;47.974;7.824;2023-02-04T03:36:32;6.60;99.90
8214;DHT22;4148;47.974;7.824;2023-02-04T03:39:00;6.60;99.90
8214;DHT22;4148;47.974;7.824;2023-02-04T03:41:28;6.70;99.90
8214;DHT22;4148;47.974;7.824;2023-02-04T03:43:56;6.70;99.90
8214;DHT22;4148;47.974;7.824;2023-02-04T03:46:24;6.80;99.90
8214;DHT22;4148;47.974;7.824;2023-02-04T03:48:53;6.80;99.90
8214;DHT22;4148;47.974;7.824;2023-02-04T03:51:22;6.80;99.90
8214;DHT22;4148;47.974;7.824;2023-02-04T03:53:50;6.70;99.90
8214;DHT22;4148;47.974;7.824;2023-02-04T03:56:17;6.70;99.90
8214;DHT22;4148;47.974;7.824;2023-02-04T03:58:45;6.60;99.90
8214;DHT22;4148;47.974;7.824;2023-02-04T04:01:13;6.70;99.90
8214;DHT22;4148;47.974;7.824;2023-02-04T04:03:41;6.50;99.90
8214;DHT22;4148;47.974;7.824;2023-02-04T04:06:09;6.70;99.90
8214;DHT22;4148;47.974;7.824;2023-02-04T04:08:38;6.60;99.90
8214;DHT22;4148;47.974;7.824;2023-02-04T04:11:06;6.70;99.90
8214;DHT22;4148;47.974;7.824;2023-02-04T04:13:34;6.70;99.90
8214;DHT22;4148;47.974;7.824;2023-02-04T04:16:02;6.60;99.90
8214;DHT22;4148;47.974;7.824;2023-02-04T04:18:30;6.60;99.90
8214;DHT22;4148;47.974;7.824;2023-02-04T04:20:58;6.60;99.90
8214;DHT22;4148;47.974;7.824;2023-02-04T04:23:26;6.60;99.90
8214;DHT22;4148;47.974;7.824;2023-02-04T04:25:56;6.60;99.90
8214;DHT22;4148;47.974;7.824;2023-02-04T04:28:23;6.70;99.90
8214;DHT22;4148;47.974;7.824;2023-02-04T04:30:51;6.60;99.90
8214;DHT22;4148;47.974;7.824;2023-02-04T04:33:19;6.70;99.90
8214;DHT22;4148;47.974;7.824;2023-02-04T04:35:47;6.80;99.90
8214;DHT22;4148;47.974;7.824;2023-02-04T04:38:15;6.80;99.90
8214;DHT22;4148;47.974;7.824;2023-02-04T04:40:43;6.80;99.90
8214;DHT22;4148;47.974;7.824;2023-02-04T04:43:12;6.80;99.90
8214;DHT22;4148;47.974;7.824;2023-02-04T04:45:40;6.80;99.90
8214;DHT22;4148;47.974;7.824;2023-02-04T04:48:07;6.80;99.90
8214;DHT22;4148;47.974;7.824;2023-02-04T04:50:35;6.90;99.90
8214;DHT22;4148;47.974;7.824;2023-02-04T04:53:03;6.80;99.90
8214;DHT22;4148;47.974;7.824;2023-02-04T04:55:32;6.80;99.90
8214;DHT22;4148;47.974;7.824;2023-02-04T04:57:59;6.80;99.90
8214;DHT22;4148;47.974;7.824;2023-02-04T05:00:29;6.70;99.90
8214;DHT22;4148;47.974;7.824;2023-02-04T05:02:57;6.70;99.90
8214;DHT22;4148;47.974;7.824;2023-02-04T05:05:26;6.80;99.90
8214;DHT22;4148;47.974;7.824;2023-02-04T05:07:53;6.80;99.90
8214;DHT22;4148;47.974;7.824;2023-02-04T05:10:21;6.70;99.90
8214;DHT22;4148;47.974;7.824;2023-02-04T05:12:49;6.80;99.90
8214;DHT22;4148;47.974;7.824;2023-02-04T05:15:17;6.80;99.90
8214;DHT22;4148;47.974;7.824;2023-02-04T05:17:46;6.90;99.90
8214;DHT22;4148;47.974;7.824;2023-02-04T05:20:14;6.90;99.90
8214;DHT22;4148;47.974;7.824;2023-02-04T05:22:42;6.90;99.90
8214;DHT22;4148;47.974;7.824;2023-02-04T05:25:10;6.80;99.90
8214;DHT22;4148;47.974;7.824;2023-02-04T05:27:37;6.80;99.90
8214;DHT22;4148;47.974;7.824;2023-02-04T05:30:07;6.80;99.90
8214;DHT22;4148;47.974;7.824;2023-02-04T05:32:35;6.80;99.90
8214;DHT22;4148;47.974;7.824;2023-02-04T05:35:05;6.70;99.90
8214;DHT22;4148;47.974;7.824;2023-02-04T05:37:33;6.70;99.90
8214;DHT22;4148;47.974;7.824;2023-02-04T05:40:01;6.70;99.90
8214;DHT22;4148;47.974;7.824;2023-02-04T05:42:28;6.80;99.90
8214;DHT22;4148;47.974;7.824;2023-02-04T05:44:56;6.90;99.90
8214;DHT22;4148;47.974;7.824;2023-02-04T05:47:24;7.00;99.90
8214;DHT22;4148;47.974;7.824;2023-02-04T05:49:52;7.00;99.90
8214;DHT22;4148;47.974;7.824;2023-02-04T05:52:21;7.00;99.90
8214;DHT22;4148;47.974;7.824;2023-02-04T05:54:49;7.00;99.90
8214;DHT22;4148;47.974;7.824;2023-02-04T05:57:17;6.90;99.90
8214;DHT22;4148;47.974;7.824;2023-02-04T05:59:44;7.10;99.90
8214;DHT22;4148;47.974;7.824;2023-02-04T06:02:12;7.00;99.90
8214;DHT22;4148;47.974;7.824;2023-02-04T06:04:40;7.00;99.90
8214;DHT22;4148;47.974;7.824;2023-02-04T06:07:10;7.00;99.90
8214;DHT22;4148;47.974;7.824;2023-02-04T06:09:39;7.00;99.90
8214;DHT22;4148;47.974;7.824;2023-02-04T06:12:07;7.10;99.90
8214;DHT22;4148;47.974;7.824;2023-02-04T06:14:36;7.10;99.90
8214;DHT22;4148;47.974;7.824;2023-02-04T06:17:04;7.00;99.90
8214;DHT22;4148;47.974;7.824;2023-02-04T06:19:31;7.00;99.90
8214;DHT22;4148;47.974;7.824;2023-02-04T06:21:59;7.00;99.90
8214;DHT22;4148;47.974;7.824;2023-02-04T06:24:27;7.10;99.90
8214;DHT22;4148;47.974;7.824;2023-02-04T06:26:56;7.00;99.90
8214;DHT22;4148;47.974;7.824;2023-02-04T06:29:24;6.90;99.90
8214;DHT22;4148;47.974;7.824;2023-02-04T06:31:52;6.90;99.90
8214;DHT22;4148;47.974;7.824;2023-02-04T06:34:20;6.90;99.90
8214;DHT22;4148;47.974;7.824;2023-02-04T06:36:47;7.00;99.90
8214;DHT22;4148;47.974;7.824;2023-02-04T06:39:15;6.80;99.90
8214;DHT22;4148;47.974;7.824;2023-02-04T06:41:43;6.90;99.90
8214;DHT22;4148;47.974;7.824;2023-02-04T06:44:12;6.90;99.90
8214;DHT22;4148;47.974;7.824;2023-02-04T06:46:40;6.80;99.90
8214;DHT22;4148;47.974;7.824;2023-02-04T06:49:08;6.80;99.90
8214;DHT22;4148;47.974;7.824;2023-02-04T06:51:35;6.80;99.90
8214;DHT22;4148;47.974;7.824;2023-02-04T06:54:03;6.80;99.90
8214;DHT22;4148;47.974;7.824;2023-02-04T06:56:31;6.80;99.90
8214;DHT22;4148;47.974;7.824;2023-02-04T06:58:59;6.80;99.90
8214;DHT22;4148;47.974;7.824;2023-02-04T07:01:30;6.80;99.90
8214;DHT22;4148;47.974;7.824;2023-02-04T07:03:58;6.80;99.90
8214;DHT22;4148;47.974;7.824;2023-02-04T07:06:26;6.80;99.90
8214;DHT22;4148;47.974;7.824;2023-02-04T07:08:53;6.80;99.90
8214;DHT22;4148;47.974;7.824;2023-02-04T07:11:21;6.90;99.90
8214;DHT22;4148;47.974;7.824;2023-02-04T07:13:49;6.90;99.90
8214;DHT22;4148;47.974;7.824;2023-02-04T07:16:17;6.90;99.90
8214;DHT22;4148;47.974;7.824;2023-02-04T07:18:46;6.90;99.90
8214;DHT22;4148;47.974;7.824;2023-02-04T07:21:14;6.90;99.90
8214;DHT22;4148;47.974;7.824;2023-02-04T07:23:42;6.90;99.90
8214;DHT22;4148;47.974;7.824;2023-02-04T07:26:09;6.90;99.90
8214;DHT22;4148;47.974;7.824;2023-02-04T07:28:37;6.80;99.90
8214;DHT22;4148;47.974;7.824;2023-02-04T07:31:06;7.00;99.90
8214;DHT22;4148;47.974;7.824;2023-02-04T07:33:34;7.00;99.90
8214;DHT22;4148;47.974;7.824;2023-02-04T07:36:04;6.90;99.90
8214;DHT22;4148;47.974;7.824;2023-02-04T07:38:32;6.90;99.90
8214;DHT22;4148;47.974;7.824;2023-02-04T07:41:00;6.90;99.90
8214;DHT22;4148;47.974;7.824;2023-02-04T07:43:28;6.90;99.90
8214;DHT22;4148;47.974;7.824;2023-02-04T07:45:56;6.90;99.90
8214;DHT22;4148;47.974;7.824;2023-02-04T07:48:24;6.80;99.90
8214;DHT22;4148;47.974;7.824;2023-02-04T07:50:52;6.80;99.90
8214;DHT22;4148;47.974;7.824;2023-02-04T07:53:21;6.80;99.90
8214;DHT22;4148;47.974;7.824;2023-02-04T07:55:49;6.80;99.90
8214;DHT22;4148;47.974;7.824;2023-02-04T07:58:16;6.90;99.90
8214;DHT22;4148;47.974;7.824;2023-02-04T08:00:44;6.90;99.90
8214;DHT22;4148;47.974;7.824;2023-02-04T08:03:12;6.90;99.90
8214;DHT22;4148;47.974;7.824;2023-02-04T08:05:40;6.90;99.90
8214;DHT22;4148;47.974;7.824;2023-02-04T08:08:08;6.90;99.90
8214;DHT22;4148;47.974;7.824;2023-02-04T08:10:37;6.90;99.90
8214;DHT22;4148;47.974;7.824;2023-02-04T08:13:05;6.80;99.90
8214;DHT22;4148;47.974;7.824;2023-02-04T08:15:33;6.90;99.90
8214;DHT22;4148;47.974;7.824;2023-02-04T08:18:01;6.90;99.90
8214;DHT22;4148;47.974;7.824;2023-02-04T08:20:29;6.90;99.90
8214;DHT22;4148;47.974;7.824;2023-02-04T08:22:57;6.90;99.90
8214;DHT22;4148;47.974;7.824;2023-02-04T08:25:25;6.90;99.90
8214;DHT22;4148;47.974;7.824;2023-02-04T08:27:55;6.90;99.90
8214;DHT22;4148;47.974;7.824;2023-02-04T08:30:23;6.90;99.90
8214;DHT22;4148;47.974;7.824;2023-02-04T08:32:51;6.90;99.90
8214;DHT22;4148;47.974;7.824;2023-02-04T08:35:19;6.90;99.90
8214;DHT22;4148;47.974;7.824;2023-02-04T08:37:47;6.90;99.90
8214;DHT22;4148;47.974;7.824;2023-02-04T08:40:15;7.00;99.90
8214;DHT22;4148;47.974;7.824;2023-02-04T08:42:45;7.10;99.90
8214;DHT22;4148;47.974;7.824;2023-02-04T08:45:15;7.10;99.90
8214;DHT22;4148;47.974;7.824;2023-02-04T08:47:42;7.10;99.90
8214;DHT22;4148;47.974;7.824;2023-02-04T08:50:10;7.10;99.90
8214;DHT22;4148;47.974;7.824;2023-02-04T08:52:38;7.10;99.90
8214;DHT22;4148;47.974;7.824;2023-02-04T08:55:07;7.20;99.90
8214;DHT22;4148;47.974;7.824;2023-02-04T08:57:35;7.20;99.90
8214;DHT22;4148;47.974;7.824;2023-02-04T09:00:03;7.30;99.90
8214;DHT22;4148;47.974;7.824;2023-02-04T09:02:32;7.30;99.90
8214;DHT22;4148;47.974;7.824;2023-02-04T09:05:00;7.20;99.90
8214;DHT22;4148;47.974;7.824;2023-02-04T09:07:28;7.20;99.90
8214;DHT22;4148;47.974;7.824;2023-02-04T09:09:56;7.20;99.90
8214;DHT22;4148;47.974;7.824;2023-02-04T09:12:24;7.20;99.90
8214;DHT22;4148;47.974;7.824;2023-02-04T09:14:52;7.20;99.90
8214;DHT22;4148;47.974;7.824;2023-02-04T09:17:19;7.20;99.90
8214;DHT22;4148;47.974;7.824;2023-02-04T09:19:49;7.20;99.90
8214;DHT22;4148;47.974;7.824;2023-02-04T09:22:16;7.20;99.90
8214;DHT22;4148;47.974;7.824;2023-02-04T09:24:44;7.20;99.90
8214;DHT22;4148;47.974;7.824;2023-02-04T09:27:12;7.20;99.90
8214;DHT22;4148;47.974;7.824;2023-02-04T09:29:40;7.20;99.90
8214;DHT22;4148;47.974;7.824;2023-02-04T09:32:08;7.30;99.90
8214;DHT22;4148;47.974;7.824;2023-02-04T09:34:36;7.20;99.90
8214;DHT22;4148;47.974;7.824;2023-02-04T09:37:05;7.10;99.90
8214;DHT22;4148;47.974;7.824;2023-02-04T09:39:33;7.20;99.90
8214;DHT22;4148;47.974;7.824;2023-02-04T09:42:01;7.20;99.90
8214;DHT22;4148;47.974;7.824;2023-02-04T09:44:29;7.30;99.90
8214;DHT22;4148;47.974;7.824;2023-02-04T09:46:58;7.30;99.90
8214;DHT22;4148;47.974;7.824;2023-02-04T09:49:27;7.20;99.90
8214;DHT22;4148;47.974;7.824;2023-02-04T09:51:55;7.20;99.90
8214;DHT22;4148;47.974;7.824;2023-02-04T09:54:25;7.30;99.90
8214;DHT22;4148;47.974;7.824;2023-02-04T09:56:53;7.30;99.90
8214;DHT22;4148;47.974;7.824;2023-02-04T09:59:22;7.30;99.90
8214;DHT22;4148;47.974;7.824;2023-02-04T10:01:58;7.30;99.90
8214;DHT22;4148;47.974;7.824;2023-02-04T10:04:27;7.30;99.90
8214;DHT22;4148;47.974;7.824;2023-02-04T10:06:55;7.30;99.90
8214;DHT22;4148;47.974;7.824;2023-02-04T10:09:26;7.30;99.90
8214;DHT22;4148;47.974;7.824;2023-02-04T10:11:54;7.40;99.90
8214;DHT22;4148;47.974;7.824;2023-02-04T10:14:22;7.50;99.90
8214;DHT22;4148;47.974;7.824;2023-02-04T10:16:53;7.50;99.90
8214;DHT22;4148;47.974;7.824;2023-02-04T10:19:25;7.60;99.90
8214;DHT22;4148;47.974;7.824;2023-02-04T10:21:54;7.50;99.90
8214;DHT22;4148;47.974;7.824;2023-02-04T10:24:23;7.50;99.90
8214;DHT22;4148;47.974;7.824;2023-02-04T10:26:53;7.40;99.90
8214;DHT22;4148;47.974;7.824;2023-02-04T10:29:32;7.40;99.90
8214;DHT22;4148;47.974;7.824;2023-02-04T10:32:00;7.40;99.90
8214;DHT22;4148;47.974;7.824;2023-02-04T10:34:32;7.40;99.90
8214;DHT22;4148;47.974;7.824;2023-02-04T10:37:13;7.50;99.90
8214;DHT22;4148;47.974;7.824;2023-02-04T10:39:45;7.50;99.90
8214;DHT22;4148;47.974;7.824;2023-02-04T10:42:21;7.50;99.90
8214;DHT22;4148;47.974;7.824;2023-02-04T10:44:49;7.50;99.90
8214;DHT22;4148;47.974;7.824;2023-02-04T10:47:18;7.60;99.90
8214;DHT22;4148;47.974;7.824;2023-02-04T10:49:54;7.60;99.90
8214;DHT22;4148;47.974;7.824;2023-02-04T10:52:28;7.60;99.90
8214;DHT22;4148;47.974;7.824;2023-02-04T10:54:57;7.70;99.90
8214;DHT22;4148;47.974;7.824;2023-02-04T10:57:28;7.80;99.90
8214;DHT22;4148;47.974;7.824;2023-02-04T10:59:58;7.90;99.90
8214;DHT22;4148;47.974;7.824;2023-02-04T11:02:40;8.10;99.90
8214;DHT22;4148;47.974;7.824;2023-02-04T11:05:13;8.20;99.90
8214;DHT22;4148;47.974;7.824;2023-02-04T11:07:41;8.30;99.90
8214;DHT22;4148;47.974;7.824;2023-02-04T11:10:13;8.40;99.90
8214;DHT22;4148;47.974;7.824;2023-02-04T11:12:44;8.40;99.90
8214;DHT22;4148;47.974;7.824;2023-02-04T11:15:36;8.40;99.90
8214;DHT22;4148;47.974;7.824;2023-02-04T11:18:06;8.30;99.90
8214;DHT22;4148;47.974;7.824;2023-02-04T11:20:34;8.40;99.90
8214;DHT22;4148;47.974;7.824;2023-02-04T11:23:33;8.40;99.90
8214;DHT22;4148;47.974;7.824;2023-02-04T11:26:04;8.50;99.90
8214;DHT22;4148;47.974;7.824;2023-02-04T11:28:50;8.50;99.90
8214;DHT22;4148;47.974;7.824;2023-02-04T11:31:27;8.60;99.90
8214;DHT22;4148;47.974;7.824;2023-02-04T11:34:09;8.70;99.90
8214;DHT22;4148;47.974;7.824;2023-02-04T11:39:48;9.10;99.90
8214;DHT22;4148;47.974;7.824;2023-02-04T11:42:19;9.40;99.90
8214;DHT22;4148;47.974;7.824;2023-02-04T11:44:55;9.70;99.90
8214;DHT22;4148;47.974;7.824;2023-02-04T11:47:26;10.00;99.90
8214;DHT22;4148;47.974;7.824;2023-02-04T11:49:57;10.10;99.90
8214;DHT22;4148;47.974;7.824;2023-02-04T11:52:25;10.30;99.90
8214;DHT22;4148;47.974;7.824;2023-02-04T11:54:54;10.20;99.90
8214;DHT22;4148;47.974;7.824;2023-02-04T11:57:24;10.30;99.90
8214;DHT22;4148;47.974;7.824;2023-02-04T11:59:54;10.20;99.90
8214;DHT22;4148;47.974;7.824;2023-02-04T12:02:23;10.10;99.90
8214;DHT22;4148;47.974;7.824;2023-02-04T12:04:54;10.10;99.90
8214;DHT22;4148;47.974;7.824;2023-02-04T12:07:27;10.10;99.90
8214;DHT22;4148;47.974;7.824;2023-02-04T12:09:56;10.10;99.90
8214;DHT22;4148;47.974;7.824;2023-02-04T12:12:26;10.10;99.90
8214;DHT22;4148;47.974;7.824;2023-02-04T12:15:01;10.10;99.90
8214;DHT22;4148;47.974;7.824;2023-02-04T12:17:30;10.10;99.90
8214;DHT22;4148;47.974;7.824;2023-02-04T12:19:58;10.10;99.90
8214;DHT22;4148;47.974;7.824;2023-02-04T12:22:25;10.00;99.90
8214;DHT22;4148;47.974;7.824;2023-02-04T12:24:53;10.00;99.90
8214;DHT22;4148;47.974;7.824;2023-02-04T12:27:21;10.00;99.90
8214;DHT22;4148;47.974;7.824;2023-02-04T12:29:49;9.90;99.90
8214;DHT22;4148;47.974;7.824;2023-02-04T12:32:18;10.00;99.90
8214;DHT22;4148;47.974;7.824;2023-02-04T12:34:46;9.90;99.90
8214;DHT22;4148;47.974;7.824;2023-02-04T12:37:14;9.90;99.90
8214;DHT22;4148;47.974;7.824;2023-02-04T12:39:42;10.00;99.90
8214;DHT22;4148;47.974;7.824;2023-02-04T12:42:10;10.10;99.90
8214;DHT22;4148;47.974;7.824;2023-02-04T12:44:38;10.10;99.90
8214;DHT22;4148;47.974;7.824;2023-02-04T12:47:05;10.10;99.90
8214;DHT22;4148;47.974;7.824;2023-02-04T12:49:35;10.20;99.90
8214;DHT22;4148;47.974;7.824;2023-02-04T12:52:04;10.10;99.90
8214;DHT22;4148;47.974;7.824;2023-02-04T12:54:31;10.20;99.90
8214;DHT22;4148;47.974;7.824;2023-02-04T12:56:59;10.20;99.90
8214;DHT22;4148;47.974;7.824;2023-02-04T12:59:28;10.10;99.90
8214;DHT22;4148;47.974;7.824;2023-02-04T13:01:57;10.20;99.90
8214;DHT22;4148;47.974;7.824;2023-02-04T13:04:24;10.10;99.90
8214;DHT22;4148;47.974;7.824;2023-02-04T13:06:54;10.00;99.90
8214;DHT22;4148;47.974;7.824;2023-02-04T13:09:21;10.00;99.90
8214;DHT22;4148;47.974;7.824;2023-02-04T13:11:49;9.90;99.90
8214;DHT22;4148;47.974;7.824;2023-02-04T13:14:17;9.80;99.90
8214;DHT22;4148;47.974;7.824;2023-02-04T13:16:45;9.70;99.90
8214;DHT22;4148;47.974;7.824;2023-02-04T13:19:13;9.70;99.90
8214;DHT22;4148;47.974;7.824;2023-02-04T13:21:41;9.60;99.90
8214;DHT22;4148;47.974;7.824;2023-02-04T13:24:10;9.80;99.90
8214;DHT22;4148;47.974;7.824;2023-02-04T13:26:38;9.70;99.90
8214;DHT22;4148;47.974;7.824;2023-02-04T13:29:05;9.80;99.90
8214;DHT22;4148;47.974;7.824;2023-02-04T13:31:33;9.90;99.90
8214;DHT22;4148;47.974;7.824;2023-02-04T13:34:01;9.90;99.90
8214;DHT22;4148;47.974;7.824;2023-02-04T13:36:29;10.00;99.90
8214;DHT22;4148;47.974;7.824;2023-02-04T13:38:57;9.90;99.90
8214;DHT22;4148;47.974;7.824;2023-02-04T13:41:27;9.80;99.90
8214;DHT22;4148;47.974;7.824;2023-02-04T13:43:55;9.90;99.90
8214;DHT22;4148;47.974;7.824;2023-02-04T13:46:24;9.80;99.90
8214;DHT22;4148;47.974;7.824;2023-02-04T13:48:52;9.90;99.90
8214;DHT22;4148;47.974;7.824;2023-02-04T13:51:19;9.90;99.90
8214;DHT22;4148;47.974;7.824;2023-02-04T13:53:47;9.90;99.90
8214;DHT22;4148;47.974;7.824;2023-02-04T13:56:15;9.80;99.90
8214;DHT22;4148;47.974;7.824;2023-02-04T13:58:44;9.80;99.90
8214;DHT22;4148;47.974;7.824;2023-02-04T14:01:13;9.70;99.90
8214;DHT22;4148;47.974;7.824;2023-02-04T14:03:41;9.70;99.90
8214;DHT22;4148;47.974;7.824;2023-02-04T14:06:09;9.60;99.90
8214;DHT22;4148;47.974;7.824;2023-02-04T14:08:37;9.70;99.90
8214;DHT22;4148;47.974;7.824;2023-02-04T14:11:05;9.80;99.90
8214;DHT22;4148;47.974;7.824;2023-02-04T14:13:33;9.70;99.90
8214;DHT22;4148;47.974;7.824;2023-02-04T14:16:03;9.80;99.90
8214;DHT22;4148;47.974;7.824;2023-02-04T14:18:31;9.70;99.90
8214;DHT22;4148;47.974;7.824;2023-02-04T14:20:59;9.70;99.90
8214;DHT22;4148;47.974;7.824;2023-02-04T14:23:27;9.80;99.90
8214;DHT22;4148;47.974;7.824;2023-02-04T14:25:55;9.70;99.90
8214;DHT22;4148;47.974;7.824;2023-02-04T14:28:23;9.60;99.90
8214;DHT22;4148;47.974;7.824;2023-02-04T14:30:51;9.60;99.90
8214;DHT22;4148;47.974;7.824;2023-02-04T14:33:21;9.60;99.90
8214;DHT22;4148;47.974;7.824;2023-02-04T14:35:49;9.50;99.90
8214;DHT22;4148;47.974;7.824;2023-02-04T14:38:17;9.50;99.90
8214;DHT22;4148;47.974;7.824;2023-02-04T14:40:45;9.60;99.90
8214;DHT22;4148;47.974;7.824;2023-02-04T14:43:12;9.60;99.90
8214;DHT22;4148;47.974;7.824;2023-02-04T14:45:40;9.40;99.90
8214;DHT22;4148;47.974;7.824;2023-02-04T14:48:08;9.50;99.90
8214;DHT22;4148;47.974;7.824;2023-02-04T14:50:37;9.40;99.90
8214;DHT22;4148;47.974;7.824;2023-02-04T14:53:05;9.40;99.90
8214;DHT22;4148;47.974;7.824;2023-02-04T14:55:33;9.40;99.90
8214;DHT22;4148;47.974;7.824;2023-02-04T14:58:01;9.40;99.90
8214;DHT22;4148;47.974;7.824;2023-02-04T15:00:29;9.40;99.90
8214;DHT22;4148;47.974;7.824;2023-02-04T15:02:57;9.30;99.90
8214;DHT22;4148;47.974;7.824;2023-02-04T15:05:25;9.30;99.90
8214;DHT22;4148;47.974;7.824;2023-02-04T15:07:54;9.30;99.90
8214;DHT22;4148;47.974;7.824;2023-02-04T15:10:22;9.30;99.90
8214;DHT22;4148;47.974;7.824;2023-02-04T15:12:50;9.30;99.90
8214;DHT22;4148;47.974;7.824;2023-02-04T15:15:20;9.20;99.90
8214;DHT22;4148;47.974;7.824;2023-02-04T15:17:48;9.20;99.90
8214;DHT22;4148;47.974;7.824;2023-02-04T15:20:16;9.10;99.90
8214;DHT22;4148;47.974;7.824;2023-02-04T15:22:44;9.00;99.90
8214;DHT22;4148;47.974;7.824;2023-02-04T15:25:18;8.90;99.90
8214;DHT22;4148;47.974;7.824;2023-02-04T15:27:46;8.80;99.90
8214;DHT22;4148;47.974;7.824;2023-02-04T15:30:15;8.80;99.90
8214;DHT22;4148;47.974;7.824;2023-02-04T15:32:43;8.80;99.90
8214;DHT22;4148;47.974;7.824;2023-02-04T15:35:12;8.80;99.90
8214;DHT22;4148;47.974;7.824;2023-02-04T15:37:40;8.80;99.90
8214;DHT22;4148;47.974;7.824;2023-02-04T15:40:09;8.70;99.90
8214;DHT22;4148;47.974;7.824;2023-02-04T15:42:38;8.60;99.90
8214;DHT22;4148;47.974;7.824;2023-02-04T15:45:07;8.50;99.90
8214;DHT22;4148;47.974;7.824;2023-02-04T15:47:35;8.50;99.90
8214;DHT22;4148;47.974;7.824;2023-02-04T15:50:03;8.50;99.90
8214;DHT22;4148;47.974;7.824;2023-02-04T15:52:34;8.50;99.90
8214;DHT22;4148;47.974;7.824;2023-02-04T15:55:02;8.40;99.90
8214;DHT22;4148;47.974;7.824;2023-02-04T15:57:30;8.30;99.90
8214;DHT22;4148;47.974;7.824;2023-02-04T15:59:59;8.30;99.90
8214;DHT22;4148;47.974;7.824;2023-02-04T16:02:27;8.20;99.90
8214;DHT22;4148;47.974;7.824;2023-02-04T16:04:54;8.10;99.90
8214;DHT22;4148;47.974;7.824;2023-02-04T16:07:22;8.10;99.90
8214;DHT22;4148;47.974;7.824;2023-02-04T16:09:50;8.00;99.90
8214;DHT22;4148;47.974;7.824;2023-02-04T16:12:18;7.90;99.90
8214;DHT22;4148;47.974;7.824;2023-02-04T16:14:46;7.90;99.90
8214;DHT22;4148;47.974;7.824;2023-02-04T16:17:15;7.80;99.90
8214;DHT22;4148;47.974;7.824;2023-02-04T16:19:44;7.80;99.90
8214;DHT22;4148;47.974;7.824;2023-02-04T16:22:12;7.70;99.90
8214;DHT22;4148;47.974;7.824;2023-02-04T16:24:40;7.70;99.90
8214;DHT22;4148;47.974;7.824;2023-02-04T16:27:08;7.60;99.90
8214;DHT22;4148;47.974;7.824;2023-02-04T16:29:36;7.50;99.90